sensor_id;sensor_type;location;lat;lon;timestamp;P1;durP1;ratioP1;P2;durP2;ratioP2
44143;SDS011;71749;51.920;4.492;2024-02-21T00:01:33;9.55;;;2.03;;
44143;SDS011;71749;51.920;4.492;2024-02-21T00:04:18;11.65;;;2.50;;
44143;SDS011;71749;51.920;4.492;2024-02-21T00:07:04;11.55;;;2.78;;
44143;SDS011;71749;51.920;4.492;2024-02-21T00:09:51;12.00;;;2.10;;
44143;SDS011;71749;51.920;4.492;2024-02-21T00:12:36;10.60;;;2.30;;
44143;SDS011;71749;51.920;4.492;2024-02-21T00:15:22;9.45;;;2.58;;
44143;SDS011;71749;51.920;4.492;2024-02-21T00:18:07;10.38;;;2.72;;
44143;SDS011;71749;51.920;4.492;2024-02-21T00:20:53;14.88;;;3.28;;
44143;SDS011;71749;51.920;4.492;2024-02-21T00:23:38;10.82;;;2.30;;
44143;SDS011;71749;51.920;4.492;2024-02-21T00:26:23;11.93;;;2.78;;
44143;SDS011;71749;51.920;4.492;2024-02-21T00:29:08;9.90;;;2.45;;
44143;SDS011;71749;51.920;4.492;2024-02-21T00:31:54;10.90;;;2.90;;
44143;SDS011;71749;51.920;4.492;2024-02-21T00:34:39;13.30;;;3.00;;
44143;SDS011;71749;51.920;4.492;2024-02-21T00:37:24;10.43;;;2.70;;
44143;SDS011;71749;51.920;4.492;2024-02-21T00:40:10;13.38;;;3.00;;
44143;SDS011;71749;51.920;4.492;2024-02-21T00:42:56;13.43;;;3.10;;
44143;SDS011;71749;51.920;4.492;2024-02-21T00:45:41;13.32;;;3.03;;
44143;SDS011;71749;51.920;4.492;2024-02-21T00:48:27;9.05;;;2.45;;
44143;SDS011;71749;51.920;4.492;2024-02-21T00:51:12;11.77;;;2.90;;
44143;SDS011;71749;51.920;4.492;2024-02-21T00:53:57;10.23;;;3.03;;
44143;SDS011;71749;51.920;4.492;2024-02-21T00:56:43;13.27;;;2.90;;
44143;SDS011;71749;51.920;4.492;2024-02-21T00:59:28;9.88;;;2.45;;
44143;SDS011;71749;51.920;4.492;2024-02-21T01:02:13;11.25;;;2.83;;
44143;SDS011;71749;51.920;4.492;2024-02-21T01:04:59;10.40;;;2.67;;
44143;SDS011;71749;51.920;4.492;2024-02-21T01:07:46;9.73;;;2.50;;
44143;SDS011;71749;51.920;4.492;2024-02-21T01:10:31;10.93;;;2.58;;
44143;SDS011;71749;51.920;4.492;2024-02-21T01:13:17;7.93;;;2.65;;
44143;SDS011;71749;51.920;4.492;2024-02-21T01:16:02;13.05;;;2.72;;
44143;SDS011;71749;51.920;4.492;2024-02-21T01:18:48;10.02;;;2.88;;
44143;SDS011;71749;51.920;4.492;2024-02-21T01:21:33;10.52;;;2.35;;
44143;SDS011;71749;51.920;4.492;2024-02-21T01:24:18;10.63;;;2.38;;
44143;SDS011;71749;51.920;4.492;2024-02-21T01:27:04;6.60;;;2.20;;
44143;SDS011;71749;51.920;4.492;2024-02-21T01:29:49;8.82;;;2.10;;
44143;SDS011;71749;51.920;4.492;2024-02-21T01:32:34;8.90;;;2.45;;
44143;SDS011;71749;51.920;4.492;2024-02-21T01:35:19;10.65;;;2.92;;
44143;SDS011;71749;51.920;4.492;2024-02-21T01:38:05;9.18;;;2.03;;
44143;SDS011;71749;51.920;4.492;2024-02-21T01:40:50;9.02;;;2.40;;
44143;SDS011;71749;51.920;4.492;2024-02-21T01:43:36;8.10;;;1.95;;
44143;SDS011;71749;51.920;4.492;2024-02-21T01:46:21;7.63;;;2.35;;
44143;SDS011;71749;51.920;4.492;2024-02-21T01:49:07;8.23;;;2.42;;
44143;SDS011;71749;51.920;4.492;2024-02-21T01:51:53;7.88;;;2.53;;
44143;SDS011;71749;51.920;4.492;2024-02-21T01:54:39;9.30;;;2.60;;
44143;SDS011;71749;51.920;4.492;2024-02-21T01:57:24;9.45;;;2.63;;
44143;SDS011;71749;51.920;4.492;2024-02-21T02:00:10;10.77;;;2.60;;
44143;SDS011;71749;51.920;4.492;2024-02-21T02:02:58;7.93;;;2.80;;
44143;SDS011;71749;51.920;4.492;2024-02-21T02:05:47;7.35;;;2.85;;
44143;SDS011;71749;51.920;4.492;2024-02-21T02:08:34;8.35;;;2.33;;
44143;SDS011;71749;51.920;4.492;2024-02-21T02:11:20;9.93;;;2.50;;
44143;SDS011;71749;51.920;4.492;2024-02-21T02:14:06;8.13;;;2.65;;
44143;SDS011;71749;51.920;4.492;2024-02-21T02:16:51;12.73;;;3.20;;
44143;SDS011;71749;51.920;4.492;2024-02-21T02:19:36;11.55;;;2.70;;
44143;SDS011;71749;51.920;4.492;2024-02-21T02:22:22;11.30;;;3.30;;
44143;SDS011;71749;51.920;4.492;2024-02-21T02:25:13;9.25;;;2.50;;
44143;SDS011;71749;51.920;4.492;2024-02-21T02:27:58;9.82;;;3.10;;
44143;SDS011;71749;51.920;4.492;2024-02-21T02:30:43;9.73;;;2.85;;
44143;SDS011;71749;51.920;4.492;2024-02-21T02:33:29;11.40;;;3.35;;
44143;SDS011;71749;51.920;4.492;2024-02-21T02:36:14;12.38;;;3.13;;
44143;SDS011;71749;51.920;4.492;2024-02-21T02:38:59;13.48;;;3.30;;
44143;SDS011;71749;51.920;4.492;2024-02-21T02:41:44;10.80;;;3.00;;
44143;SDS011;71749;51.920;4.492;2024-02-21T02:44:29;8.75;;;2.65;;
44143;SDS011;71749;51.920;4.492;2024-02-21T02:47:15;9.43;;;2.65;;
44143;SDS011;71749;51.920;4.492;2024-02-21T02:50:00;9.55;;;3.05;;
44143;SDS011;71749;51.920;4.492;2024-02-21T02:52:46;8.45;;;2.90;;
44143;SDS011;71749;51.920;4.492;2024-02-21T02:55:31;7.07;;;2.50;;
44143;SDS011;71749;51.920;4.492;2024-02-21T02:58:17;10.52;;;2.92;;
44143;SDS011;71749;51.920;4.492;2024-02-21T03:01:02;8.50;;;2.50;;
44143;SDS011;71749;51.920;4.492;2024-02-21T03:03:48;8.35;;;2.40;;
44143;SDS011;71749;51.920;4.492;2024-02-21T03:06:34;10.77;;;3.55;;
44143;SDS011;71749;51.920;4.492;2024-02-21T03:09:20;8.68;;;3.10;;
44143;SDS011;71749;51.920;4.492;2024-02-21T03:12:06;10.23;;;2.53;;
44143;SDS011;71749;51.920;4.492;2024-02-21T03:14:52;12.27;;;3.28;;
44143;SDS011;71749;51.920;4.492;2024-02-21T03:17:37;10.82;;;2.85;;
44143;SDS011;71749;51.920;4.492;2024-02-21T03:20:23;10.13;;;3.25;;
44143;SDS011;71749;51.920;4.492;2024-02-21T03:23:09;7.47;;;2.70;;
44143;SDS011;71749;51.920;4.492;2024-02-21T03:25:54;8.70;;;2.60;;
44143;SDS011;71749;51.920;4.492;2024-02-21T03:28:40;8.48;;;2.63;;
44143;SDS011;71749;51.920;4.492;2024-02-21T03:31:25;8.02;;;2.92;;
44143;SDS011;71749;51.920;4.492;2024-02-21T03:34:15;8.20;;;3.22;;
44143;SDS011;71749;51.920;4.492;2024-02-21T03:37:01;7.10;;;2.72;;
44143;SDS011;71749;51.920;4.492;2024-02-21T03:39:46;8.45;;;3.03;;
44143;SDS011;71749;51.920;4.492;2024-02-21T03:42:32;7.95;;;3.03;;
44143;SDS011;71749;51.920;4.492;2024-02-21T03:45:17;7.90;;;2.90;;
44143;SDS011;71749;51.920;4.492;2024-02-21T03:48:03;6.97;;;2.92;;
44143;SDS011;71749;51.920;4.492;2024-02-21T03:50:48;7.07;;;3.10;;
44143;SDS011;71749;51.920;4.492;2024-02-21T03:53:34;7.40;;;2.75;;
44143;SDS011;71749;51.920;4.492;2024-02-21T03:56:19;11.25;;;3.83;;
44143;SDS011;71749;51.920;4.492;2024-02-21T03:59:05;6.82;;;2.60;;
44143;SDS011;71749;51.920;4.492;2024-02-21T04:01:54;5.38;;;2.70;;
44143;SDS011;71749;51.920;4.492;2024-02-21T04:04:44;6.88;;;3.20;;
44143;SDS011;71749;51.920;4.492;2024-02-21T04:07:33;7.07;;;2.95;;
44143;SDS011;71749;51.920;4.492;2024-02-21T04:10:18;5.90;;;2.95;;
44143;SDS011;71749;51.920;4.492;2024-02-21T04:13:05;9.63;;;3.45;;
44143;SDS011;71749;51.920;4.492;2024-02-21T04:15:51;6.65;;;3.35;;
44143;SDS011;71749;51.920;4.492;2024-02-21T04:18:36;8.75;;;4.03;;
44143;SDS011;71749;51.920;4.492;2024-02-21T04:21:22;6.13;;;3.05;;
44143;SDS011;71749;51.920;4.492;2024-02-21T04:24:09;7.78;;;3.00;;
44143;SDS011;71749;51.920;4.492;2024-02-21T04:26:55;7.60;;;3.83;;
44143;SDS011;71749;51.920;4.492;2024-02-21T04:29:43;8.95;;;3.70;;
44143;SDS011;71749;51.920;4.492;2024-02-21T04:35:18;7.88;;;3.80;;
44143;SDS011;71749;51.920;4.492;2024-02-21T04:38:03;10.23;;;4.10;;
44143;SDS011;71749;51.920;4.492;2024-02-21T04:40:49;7.10;;;4.00;;
44143;SDS011;71749;51.920;4.492;2024-02-21T04:43:34;8.95;;;4.03;;
44143;SDS011;71749;51.920;4.492;2024-02-21T04:46:20;7.70;;;4.03;;
44143;SDS011;71749;51.920;4.492;2024-02-21T04:49:06;8.07;;;3.80;;
44143;SDS011;71749;51.920;4.492;2024-02-21T04:51:51;9.27;;;4.00;;
44143;SDS011;71749;51.920;4.492;2024-02-21T04:54:37;8.20;;;4.15;;
44143;SDS011;71749;51.920;4.492;2024-02-21T04:57:22;13.20;;;4.72;;
44143;SDS011;71749;51.920;4.492;2024-02-21T05:00:07;8.30;;;3.95;;
44143;SDS011;71749;51.920;4.492;2024-02-21T05:02:54;8.13;;;4.00;;
44143;SDS011;71749;51.920;4.492;2024-02-21T05:05:39;7.90;;;3.65;;
44143;SDS011;71749;51.920;4.492;2024-02-21T05:08:24;6.45;;;3.40;;
44143;SDS011;71749;51.920;4.492;2024-02-21T05:11:10;6.35;;;3.25;;
44143;SDS011;71749;51.920;4.492;2024-02-21T05:13:58;5.38;;;3.13;;
44143;SDS011;71749;51.920;4.492;2024-02-21T05:16:43;7.45;;;3.65;;
44143;SDS011;71749;51.920;4.492;2024-02-21T05:19:29;8.55;;;4.13;;
44143;SDS011;71749;51.920;4.492;2024-02-21T05:22:14;6.30;;;3.65;;
44143;SDS011;71749;51.920;4.492;2024-02-21T05:25:00;6.65;;;3.80;;
44143;SDS011;71749;51.920;4.492;2024-02-21T05:27:45;8.13;;;4.53;;
44143;SDS011;71749;51.920;4.492;2024-02-21T05:30:30;9.45;;;5.22;;
44143;SDS011;71749;51.920;4.492;2024-02-21T05:33:17;8.80;;;5.28;;
44143;SDS011;71749;51.920;4.492;2024-02-21T05:36:07;9.63;;;5.35;;
44143;SDS011;71749;51.920;4.492;2024-02-21T05:38:52;11.38;;;6.43;;
44143;SDS011;71749;51.920;4.492;2024-02-21T05:41:37;11.57;;;6.82;;
44143;SDS011;71749;51.920;4.492;2024-02-21T05:44:22;12.48;;;6.47;;
44143;SDS011;71749;51.920;4.492;2024-02-21T05:47:08;9.80;;;5.82;;
44143;SDS011;71749;51.920;4.492;2024-02-21T05:49:55;12.48;;;6.18;;
44143;SDS011;71749;51.920;4.492;2024-02-21T05:52:40;11.65;;;6.57;;
44143;SDS011;71749;51.920;4.492;2024-02-21T05:55:26;9.25;;;4.93;;
44143;SDS011;71749;51.920;4.492;2024-02-21T05:58:13;11.13;;;5.93;;
44143;SDS011;71749;51.920;4.492;2024-02-21T06:00:58;14.27;;;7.10;;
44143;SDS011;71749;51.920;4.492;2024-02-21T06:03:44;9.48;;;5.10;;
44143;SDS011;71749;51.920;4.492;2024-02-21T06:06:30;12.60;;;6.30;;
44143;SDS011;71749;51.920;4.492;2024-02-21T06:09:16;10.32;;;5.50;;
44143;SDS011;71749;51.920;4.492;2024-02-21T06:12:01;11.48;;;6.00;;
44143;SDS011;71749;51.920;4.492;2024-02-21T06:14:47;12.82;;;6.80;;
44143;SDS011;71749;51.920;4.492;2024-02-21T06:17:32;12.65;;;6.05;;
44143;SDS011;71749;51.920;4.492;2024-02-21T06:20:18;14.93;;;6.10;;
44143;SDS011;71749;51.920;4.492;2024-02-21T06:23:06;11.90;;;5.30;;
44143;SDS011;71749;51.920;4.492;2024-02-21T06:25:53;11.00;;;5.90;;
44143;SDS011;71749;51.920;4.492;2024-02-21T06:28:38;12.23;;;5.82;;
44143;SDS011;71749;51.920;4.492;2024-02-21T06:31:24;13.00;;;5.50;;
44143;SDS011;71749;51.920;4.492;2024-02-21T06:34:09;11.57;;;5.30;;
44143;SDS011;71749;51.920;4.492;2024-02-21T06:36:55;13.60;;;6.18;;
44143;SDS011;71749;51.920;4.492;2024-02-21T06:39:40;11.73;;;5.40;;
44143;SDS011;71749;51.920;4.492;2024-02-21T06:42:26;10.02;;;4.93;;
44143;SDS011;71749;51.920;4.492;2024-02-21T06:45:11;12.15;;;5.88;;
44143;SDS011;71749;51.920;4.492;2024-02-21T06:47:56;14.45;;;6.80;;
44143;SDS011;71749;51.920;4.492;2024-02-21T06:50:42;14.35;;;6.30;;
44143;SDS011;71749;51.920;4.492;2024-02-21T06:53:27;15.48;;;6.63;;
44143;SDS011;71749;51.920;4.492;2024-02-21T06:56:12;16.27;;;7.18;;
44143;SDS011;71749;51.920;4.492;2024-02-21T06:58:58;13.75;;;7.25;;
44143;SDS011;71749;51.920;4.492;2024-02-21T07:01:48;11.60;;;6.20;;
44143;SDS011;71749;51.920;4.492;2024-02-21T07:04:34;17.23;;;7.30;;
44143;SDS011;71749;51.920;4.492;2024-02-21T07:07:21;12.43;;;6.32;;
44143;SDS011;71749;51.920;4.492;2024-02-21T07:10:06;13.10;;;7.20;;
44143;SDS011;71749;51.920;4.492;2024-02-21T07:12:53;12.77;;;6.40;;
44143;SDS011;71749;51.920;4.492;2024-02-21T07:15:38;12.98;;;6.18;;
44143;SDS011;71749;51.920;4.492;2024-02-21T07:18:24;12.75;;;6.53;;
44143;SDS011;71749;51.920;4.492;2024-02-21T07:21:10;11.10;;;6.65;;
44143;SDS011;71749;51.920;4.492;2024-02-21T07:23:55;15.60;;;7.68;;
44143;SDS011;71749;51.920;4.492;2024-02-21T07:26:43;14.82;;;8.32;;
44143;SDS011;71749;51.920;4.492;2024-02-21T07:29:30;13.80;;;7.13;;
44143;SDS011;71749;51.920;4.492;2024-02-21T07:32:15;14.63;;;8.23;;
44143;SDS011;71749;51.920;4.492;2024-02-21T07:35:01;14.80;;;7.85;;
44143;SDS011;71749;51.920;4.492;2024-02-21T07:37:46;13.82;;;7.97;;
44143;SDS011;71749;51.920;4.492;2024-02-21T07:40:32;18.90;;;8.65;;
44143;SDS011;71749;51.920;4.492;2024-02-21T07:43:17;13.75;;;7.63;;
44143;SDS011;71749;51.920;4.492;2024-02-21T07:46:03;15.48;;;8.70;;
44143;SDS011;71749;51.920;4.492;2024-02-21T07:48:48;15.25;;;7.82;;
44143;SDS011;71749;51.920;4.492;2024-02-21T07:51:34;13.77;;;7.68;;
44143;SDS011;71749;51.920;4.492;2024-02-21T07:54:21;15.38;;;8.40;;
44143;SDS011;71749;51.920;4.492;2024-02-21T07:57:09;15.73;;;8.15;;
44143;SDS011;71749;51.920;4.492;2024-02-21T07:59:54;14.35;;;7.43;;
44143;SDS011;71749;51.920;4.492;2024-02-21T08:02:41;14.23;;;7.70;;
44143;SDS011;71749;51.920;4.492;2024-02-21T08:05:29;14.68;;;7.95;;
44143;SDS011;71749;51.920;4.492;2024-02-21T08:08:15;18.27;;;7.90;;
44143;SDS011;71749;51.920;4.492;2024-02-21T08:11:04;13.98;;;7.50;;
44143;SDS011;71749;51.920;4.492;2024-02-21T08:13:51;14.32;;;8.02;;
44143;SDS011;71749;51.920;4.492;2024-02-21T08:16:36;15.40;;;8.80;;
44143;SDS011;71749;51.920;4.492;2024-02-21T08:19:21;16.33;;;8.00;;
44143;SDS011;71749;51.920;4.492;2024-02-21T08:22:11;14.07;;;8.15;;
44143;SDS011;71749;51.920;4.492;2024-02-21T08:24:57;14.38;;;7.82;;
44143;SDS011;71749;51.920;4.492;2024-02-21T08:27:42;16.48;;;8.23;;
44143;SDS011;71749;51.920;4.492;2024-02-21T08:30:28;15.40;;;8.02;;
44143;SDS011;71749;51.920;4.492;2024-02-21T08:33:14;16.48;;;9.00;;
44143;SDS011;71749;51.920;4.492;2024-02-21T08:36:01;14.65;;;8.13;;
44143;SDS011;71749;51.920;4.492;2024-02-21T08:38:48;12.48;;;7.85;;
44143;SDS011;71749;51.920;4.492;2024-02-21T08:41:33;15.93;;;8.52;;
44143;SDS011;71749;51.920;4.492;2024-02-21T08:44:39;12.88;;;7.13;;
44143;SDS011;71749;51.920;4.492;2024-02-21T08:47:29;14.57;;;8.18;;
44143;SDS011;71749;51.920;4.492;2024-02-21T08:50:14;12.57;;;8.05;;
44143;SDS011;71749;51.920;4.492;2024-02-21T08:53:11;16.92;;;8.45;;
44143;SDS011;71749;51.920;4.492;2024-02-21T08:55:58;14.30;;;7.82;;
44143;SDS011;71749;51.920;4.492;2024-02-21T08:58:44;13.77;;;8.30;;
44143;SDS011;71749;51.920;4.492;2024-02-21T09:01:30;19.10;;;8.75;;
44143;SDS011;71749;51.920;4.492;2024-02-21T09:04:16;14.73;;;7.88;;
44143;SDS011;71749;51.920;4.492;2024-02-21T09:07:01;12.23;;;7.60;;
44143;SDS011;71749;51.920;4.492;2024-02-21T09:09:47;12.93;;;7.47;;
44143;SDS011;71749;51.920;4.492;2024-02-21T09:12:32;14.27;;;8.55;;
44143;SDS011;71749;51.920;4.492;2024-02-21T09:15:17;15.40;;;8.10;;
44143;SDS011;71749;51.920;4.492;2024-02-21T09:18:03;12.10;;;7.22;;
44143;SDS011;71749;51.920;4.492;2024-02-21T09:20:48;12.38;;;7.25;;
44143;SDS011;71749;51.920;4.492;2024-02-21T09:23:34;12.98;;;7.30;;
44143;SDS011;71749;51.920;4.492;2024-02-21T09:26:19;13.55;;;7.72;;
44143;SDS011;71749;51.920;4.492;2024-02-21T09:29:04;11.98;;;7.25;;
44143;SDS011;71749;51.920;4.492;2024-02-21T09:31:50;11.40;;;6.63;;
44143;SDS011;71749;51.920;4.492;2024-02-21T09:34:35;13.90;;;7.88;;
44143;SDS011;71749;51.920;4.492;2024-02-21T09:37:21;12.15;;;7.18;;
44143;SDS011;71749;51.920;4.492;2024-02-21T09:40:06;27.23;;;16.77;;
44143;SDS011;71749;51.920;4.492;2024-02-21T09:42:56;14.00;;;9.13;;
44143;SDS011;71749;51.920;4.492;2024-02-21T09:45:48;14.00;;;8.63;;
44143;SDS011;71749;51.920;4.492;2024-02-21T09:51:30;10.02;;;6.18;;
44143;SDS011;71749;51.920;4.492;2024-02-21T09:54:17;10.90;;;6.28;;
44143;SDS011;71749;51.920;4.492;2024-02-21T09:57:03;9.48;;;5.93;;
44143;SDS011;71749;51.920;4.492;2024-02-21T09:59:51;12.52;;;6.07;;
44143;SDS011;71749;51.920;4.492;2024-02-21T10:02:38;9.95;;;5.68;;
44143;SDS011;71749;51.920;4.492;2024-02-21T10:05:24;10.38;;;6.13;;
44143;SDS011;71749;51.920;4.492;2024-02-21T10:08:13;9.80;;;5.75;;
44143;SDS011;71749;51.920;4.492;2024-02-21T10:11:00;9.95;;;6.07;;
44143;SDS011;71749;51.920;4.492;2024-02-21T10:13:48;9.38;;;5.28;;
44143;SDS011;71749;51.920;4.492;2024-02-21T10:16:36;8.73;;;5.63;;
44143;SDS011;71749;51.920;4.492;2024-02-21T10:19:22;7.75;;;4.95;;
44143;SDS011;71749;51.920;4.492;2024-02-21T10:22:08;10.52;;;5.68;;
44143;SDS011;71749;51.920;4.492;2024-02-21T10:24:54;10.63;;;6.13;;
44143;SDS011;71749;51.920;4.492;2024-02-21T10:27:40;13.38;;;5.88;;
44143;SDS011;71749;51.920;4.492;2024-02-21T10:30:26;9.43;;;5.72;;
44143;SDS011;71749;51.920;4.492;2024-02-21T10:33:11;11.45;;;5.82;;
44143;SDS011;71749;51.920;4.492;2024-02-21T10:36:10;11.25;;;6.55;;
44143;SDS011;71749;51.920;4.492;2024-02-21T10:38:57;14.98;;;8.15;;
44143;SDS011;71749;51.920;4.492;2024-02-21T10:41:42;10.57;;;6.20;;
44143;SDS011;71749;51.920;4.492;2024-02-21T10:44:29;18.70;;;8.23;;
44143;SDS011;71749;51.920;4.492;2024-02-21T10:47:16;11.13;;;6.22;;
44143;SDS011;71749;51.920;4.492;2024-02-21T10:50:09;11.85;;;6.03;;
44143;SDS011;71749;51.920;4.492;2024-02-21T10:53:09;8.02;;;5.03;;
44143;SDS011;71749;51.920;4.492;2024-02-21T10:59:11;9.25;;;5.03;;
44143;SDS011;71749;51.920;4.492;2024-02-21T11:01:59;11.05;;;5.45;;
44143;SDS011;71749;51.920;4.492;2024-02-21T11:04:45;12.00;;;6.35;;
44143;SDS011;71749;51.920;4.492;2024-02-21T11:07:33;9.48;;;5.68;;
44143;SDS011;71749;51.920;4.492;2024-02-21T11:10:25;10.70;;;6.13;;
44143;SDS011;71749;51.920;4.492;2024-02-21T11:13:11;9.75;;;6.25;;
44143;SDS011;71749;51.920;4.492;2024-02-21T11:16:05;9.75;;;6.35;;
44143;SDS011;71749;51.920;4.492;2024-02-21T11:19:04;12.73;;;7.45;;
44143;SDS011;71749;51.920;4.492;2024-02-21T11:21:53;10.02;;;6.18;;
44143;SDS011;71749;51.920;4.492;2024-02-21T11:24:40;9.00;;;5.70;;
44143;SDS011;71749;51.920;4.492;2024-02-21T11:27:26;9.57;;;6.07;;
44143;SDS011;71749;51.920;4.492;2024-02-21T11:30:12;10.82;;;6.50;;
44143;SDS011;71749;51.920;4.492;2024-02-21T11:33:03;9.90;;;6.00;;
44143;SDS011;71749;51.920;4.492;2024-02-21T11:35:54;10.65;;;5.22;;
44143;SDS011;71749;51.920;4.492;2024-02-21T11:38:39;9.25;;;6.15;;
44143;SDS011;71749;51.920;4.492;2024-02-21T11:41:24;9.07;;;5.43;;
44143;SDS011;71749;51.920;4.492;2024-02-21T11:44:10;9.68;;;5.75;;
44143;SDS011;71749;51.920;4.492;2024-02-21T11:46:55;8.25;;;5.07;;
44143;SDS011;71749;51.920;4.492;2024-02-21T11:49:47;9.88;;;5.22;;
44143;SDS011;71749;51.920;4.492;2024-02-21T11:52:39;8.68;;;4.85;;
44143;SDS011;71749;51.920;4.492;2024-02-21T11:55:25;9.15;;;5.05;;
44143;SDS011;71749;51.920;4.492;2024-02-21T11:58:10;6.97;;;4.30;;
44143;SDS011;71749;51.920;4.492;2024-02-21T12:00:58;7.75;;;4.60;;
44143;SDS011;71749;51.920;4.492;2024-02-21T12:03:44;8.95;;;5.40;;
44143;SDS011;71749;51.920;4.492;2024-02-21T12:06:34;10.05;;;5.40;;
44143;SDS011;71749;51.920;4.492;2024-02-21T12:09:19;9.25;;;5.53;;
44143;SDS011;71749;51.920;4.492;2024-02-21T12:12:06;7.75;;;4.68;;
44143;SDS011;71749;51.920;4.492;2024-02-21T12:14:54;10.70;;;5.53;;
44143;SDS011;71749;51.920;4.492;2024-02-21T12:17:41;8.95;;;5.88;;
44143;SDS011;71749;51.920;4.492;2024-02-21T12:20:27;10.55;;;5.07;;
44143;SDS011;71749;51.920;4.492;2024-02-21T12:23:12;9.77;;;5.32;;
44143;SDS011;71749;51.920;4.492;2024-02-21T12:25:59;8.25;;;5.20;;
44143;SDS011;71749;51.920;4.492;2024-02-21T12:28:44;11.25;;;5.20;;
44143;SDS011;71749;51.920;4.492;2024-02-21T12:31:30;11.80;;;5.47;;
44143;SDS011;71749;51.920;4.492;2024-02-21T12:34:16;10.30;;;5.38;;
44143;SDS011;71749;51.920;4.492;2024-02-21T12:37:14;12.35;;;5.32;;
44143;SDS011;71749;51.920;4.492;2024-02-21T12:40:02;8.30;;;4.70;;
44143;SDS011;71749;51.920;4.492;2024-02-21T12:42:51;10.52;;;5.43;;
44143;SDS011;71749;51.920;4.492;2024-02-21T12:45:37;10.77;;;5.38;;
44143;SDS011;71749;51.920;4.492;2024-02-21T12:48:23;9.93;;;5.13;;
44143;SDS011;71749;51.920;4.492;2024-02-21T12:51:08;8.88;;;4.82;;
44143;SDS011;71749;51.920;4.492;2024-02-21T12:53:54;10.23;;;4.65;;
44143;SDS011;71749;51.920;4.492;2024-02-21T12:56:40;7.75;;;4.63;;
44143;SDS011;71749;51.920;4.492;2024-02-21T12:59:25;8.48;;;4.55;;
44143;SDS011;71749;51.920;4.492;2024-02-21T13:02:12;7.82;;;3.90;;
44143;SDS011;71749;51.920;4.492;2024-02-21T13:04:58;11.73;;;4.70;;
44143;SDS011;71749;51.920;4.492;2024-02-21T13:07:45;8.90;;;4.07;;
44143;SDS011;71749;51.920;4.492;2024-02-21T13:10:30;10.00;;;4.32;;
44143;SDS011;71749;51.920;4.492;2024-02-21T13:13:16;10.25;;;4.53;;
44143;SDS011;71749;51.920;4.492;2024-02-21T13:16:01;8.18;;;4.30;;
44143;SDS011;71749;51.920;4.492;2024-02-21T13:18:47;8.98;;;4.18;;
44143;SDS011;71749;51.920;4.492;2024-02-21T13:21:33;9.48;;;4.47;;
44143;SDS011;71749;51.920;4.492;2024-02-21T13:24:19;9.32;;;4.68;;
44143;SDS011;71749;51.920;4.492;2024-02-21T13:27:07;7.70;;;3.75;;
44143;SDS011;71749;51.920;4.492;2024-02-21T13:29:52;9.43;;;3.90;;
44143;SDS011;71749;51.920;4.492;2024-02-21T13:32:37;8.82;;;3.90;;
44143;SDS011;71749;51.920;4.492;2024-02-21T13:35:22;11.13;;;4.40;;
44143;SDS011;71749;51.920;4.492;2024-02-21T13:38:08;8.45;;;3.85;;
44143;SDS011;71749;51.920;4.492;2024-02-21T13:40:55;9.20;;;4.53;;
44143;SDS011;71749;51.920;4.492;2024-02-21T13:43:40;8.02;;;4.05;;
44143;SDS011;71749;51.920;4.492;2024-02-21T13:46:26;12.02;;;4.75;;
44143;SDS011;71749;51.920;4.492;2024-02-21T13:49:11;11.13;;;4.65;;
44143;SDS011;71749;51.920;4.492;2024-02-21T13:51:57;11.48;;;4.57;;
44143;SDS011;71749;51.920;4.492;2024-02-21T13:54:42;8.45;;;4.20;;
44143;SDS011;71749;51.920;4.492;2024-02-21T13:57:28;7.82;;;4.18;;
44143;SDS011;71749;51.920;4.492;2024-02-21T14:00:14;12.30;;;4.93;;
44143;SDS011;71749;51.920;4.492;2024-02-21T14:02:59;9.95;;;5.30;;
44143;SDS011;71749;51.920;4.492;2024-02-21T14:05:46;9.00;;;4.93;;
44143;SDS011;71749;51.920;4.492;2024-02-21T14:08:34;9.80;;;4.57;;
44143;SDS011;71749;51.920;4.492;2024-02-21T14:11:19;9.13;;;4.60;;
44143;SDS011;71749;51.920;4.492;2024-02-21T14:14:05;9.00;;;4.72;;
44143;SDS011;71749;51.920;4.492;2024-02-21T14:16:50;9.82;;;4.15;;
44143;SDS011;71749;51.920;4.492;2024-02-21T14:19:38;11.40;;;5.07;;
44143;SDS011;71749;51.920;4.492;2024-02-21T14:22:24;9.23;;;4.30;;
44143;SDS011;71749;51.920;4.492;2024-02-21T14:25:09;11.00;;;4.47;;
44143;SDS011;71749;51.920;4.492;2024-02-21T14:27:58;8.32;;;4.13;;
44143;SDS011;71749;51.920;4.492;2024-02-21T14:30:45;9.95;;;4.65;;
44143;SDS011;71749;51.920;4.492;2024-02-21T14:33:37;7.90;;;4.13;;
44143;SDS011;71749;51.920;4.492;2024-02-21T14:36:23;10.13;;;4.43;;
44143;SDS011;71749;51.920;4.492;2024-02-21T14:39:09;10.35;;;4.93;;
44143;SDS011;71749;51.920;4.492;2024-02-21T14:41:54;10.18;;;4.50;;
44143;SDS011;71749;51.920;4.492;2024-02-21T14:44:40;8.43;;;4.15;;
44143;SDS011;71749;51.920;4.492;2024-02-21T14:47:26;9.85;;;4.63;;
44143;SDS011;71749;51.920;4.492;2024-02-21T14:50:12;10.57;;;4.40;;
44143;SDS011;71749;51.920;4.492;2024-02-21T14:52:57;9.18;;;4.82;;
44143;SDS011;71749;51.920;4.492;2024-02-21T14:55:43;11.10;;;5.32;;
44143;SDS011;71749;51.920;4.492;2024-02-21T14:58:29;9.73;;;4.35;;
44143;SDS011;71749;51.920;4.492;2024-02-21T15:14:39;8.15;;;4.55;;
44143;SDS011;71749;51.920;4.492;2024-02-21T15:17:24;10.93;;;5.40;;
44143;SDS011;71749;51.920;4.492;2024-02-21T15:20:10;8.60;;;4.45;;
44143;SDS011;71749;51.920;4.492;2024-02-21T15:22:56;12.20;;;5.35;;
44143;SDS011;71749;51.920;4.492;2024-02-21T15:25:42;10.90;;;5.32;;
44143;SDS011;71749;51.920;4.492;2024-02-21T15:31:04;8.00;;;4.45;;
44143;SDS011;71749;51.920;4.492;2024-02-21T15:33:50;12.05;;;5.72;;
44143;SDS011;71749;51.920;4.492;2024-02-21T15:36:40;10.95;;;5.35;;
44143;SDS011;71749;51.920;4.492;2024-02-21T15:39:26;9.85;;;5.43;;
44143;SDS011;71749;51.920;4.492;2024-02-21T15:42:12;9.48;;;5.72;;
44143;SDS011;71749;51.920;4.492;2024-02-21T15:44:57;9.45;;;4.68;;
44143;SDS011;71749;51.920;4.492;2024-02-21T15:47:45;9.13;;;5.25;;
44143;SDS011;71749;51.920;4.492;2024-02-21T15:50:34;9.27;;;5.20;;
44143;SDS011;71749;51.920;4.492;2024-02-21T15:53:20;9.38;;;5.05;;
44143;SDS011;71749;51.920;4.492;2024-02-21T15:56:08;8.60;;;4.40;;
44143;SDS011;71749;51.920;4.492;2024-02-21T15:58:53;10.30;;;5.05;;
44143;SDS011;71749;51.920;4.492;2024-02-21T16:01:40;9.93;;;5.30;;
44143;SDS011;71749;51.920;4.492;2024-02-21T16:04:28;8.55;;;4.97;;
44143;SDS011;71749;51.920;4.492;2024-02-21T16:07:17;10.95;;;5.90;;
44143;SDS011;71749;51.920;4.492;2024-02-21T16:10:03;9.65;;;6.25;;
44143;SDS011;71749;51.920;4.492;2024-02-21T16:12:51;9.45;;;5.55;;
44143;SDS011;71749;51.920;4.492;2024-02-21T16:15:36;10.40;;;5.63;;
44143;SDS011;71749;51.920;4.492;2024-02-21T16:21:04;11.77;;;7.03;;
44143;SDS011;71749;51.920;4.492;2024-02-21T16:23:55;12.03;;;5.57;;
44143;SDS011;71749;51.920;4.492;2024-02-21T16:26:41;10.15;;;5.50;;
44143;SDS011;71749;51.920;4.492;2024-02-21T16:32:16;10.20;;;5.10;;
44143;SDS011;71749;51.920;4.492;2024-02-21T16:35:02;8.68;;;5.40;;
44143;SDS011;71749;51.920;4.492;2024-02-21T16:40:24;10.70;;;5.80;;
44143;SDS011;71749;51.920;4.492;2024-02-21T16:43:14;10.00;;;4.95;;
44143;SDS011;71749;51.920;4.492;2024-02-21T16:46:02;9.43;;;5.55;;
44143;SDS011;71749;51.920;4.492;2024-02-21T16:48:48;10.07;;;5.30;;
44143;SDS011;71749;51.920;4.492;2024-02-21T16:51:33;9.13;;;5.13;;
44143;SDS011;71749;51.920;4.492;2024-02-21T16:54:23;9.90;;;4.75;;
44143;SDS011;71749;51.920;4.492;2024-02-21T16:57:10;8.73;;;4.88;;
44143;SDS011;71749;51.920;4.492;2024-02-21T16:59:55;9.30;;;5.45;;
44143;SDS011;71749;51.920;4.492;2024-02-21T17:02:41;8.70;;;5.03;;
44143;SDS011;71749;51.920;4.492;2024-02-21T17:05:38;8.77;;;5.32;;
44143;SDS011;71749;51.920;4.492;2024-02-21T17:08:24;9.13;;;4.82;;